Pagrindinis puslapis
METAR-TAF:

METAR-TAF

Oro uostai :

Budė, Norvegija

platuma: 67-16N, ilguma: 014-22E, Aukštis: 1 m

Dabartinis oras

Ataskaita buvo paskelbta 38 minutes, ne 07:20 UTC
Vėjas 17 kt iš Rytų
Temperatūra 3°C
Drėgmė 65%
Slėgis 991 hPa
Matomumas 10 km arba daugiau
Mažai debesys ne aukštis 4000 ft
Su prošvaistėmis ne aukštis 8000 ft

METAR: ENBO 150720Z 08017KT 9999 FEW040 BKN080 03/M03 Q0991

Laikas: 08:58 (07:58 UTC)

Prognozė

Prognozė galioja nuo 15 metu 06 UTC su 16 metu 06 UTC
Vėjas 20 kt iš Rytų
Matomumas 10 km arba daugiau
Mažai debesys ne aukštis 4000 ft
Su prošvaistėmis ne aukštis 8000 ft
Laikinai
nuo 15 metu 06 UTC su 15 metu 21 UTC
Vėjas 25 kt iš Rytų/Pietryčių su gūsio iki 35 kt
Tapsmas
nuo 16 metu 00 UTC su 16 metu 03 UTC
Vėjas 10 kt iš Rytų

TAF: ENBO 1506/1606 10020KT 9999 FEW040 BKN080 TEMPO 1506/1521 11025G35KT BECMG 1600/1603 09010KT

Orai ataskaitas ir orų prognozės (METAR, TAF).

turimą stotys yra geltonos ir raudonos taškus žemėlapyje.

Perkelti pele per norėdami pamatyti stoties vardą.

Tada spustelėkite, norėdami matyti oro stebėjimo ir prognozės.

Norėdami pakeisti žemėlapį: spustelėkite ant žalios mygtukų su juodo kryžiaus žemyn,; žalią mygtuką su brūkšneliu, jei norite nutolinti; arba žalių rodyklių gretimoms žemėlapius.


METAR-TAF: